Time;durP1;ratioP1;P1;durP2;ratioP2;P2;SDS_P1;SDS_P2;PMS_P1;PMS_P2;Temp;Humidity;BMP_temperature;BMP_pressure;BME280_temperature;BME280_humidity;BME280_pressure;Samples;Min_cycle;Max_cycle;Signal;HPM_P1;HPM_P2
2023/04/05 00:00:32;;;;;;;4.45;2.58;;;9.00;99.90;;;;;;5074818;28;20036;-67
2023/04/05 00:03:01;;;;;;;3.05;2.70;;;9.00;99.90;;;;;;5074637;28;20033;-68
2023/04/05 00:05:33;;;;;;;3.80;2.97;;;9.10;99.90;;;;;;5074552;28;20029;-68
2023/04/05 00:08:00;;;;;;;5.03;3.10;;;9.10;99.90;;;;;;5074646;28;20115;-68
2023/04/05 00:10:27;;;;;;;3.88;3.17;;;8.90;99.90;;;;;;5074458;28;20036;-68
2023/04/05 00:12:53;;;;;;;3.97;3.13;;;8.90;99.90;;;;;;5074890;28;20028;-68
2023/04/05 00:15:18;;;;;;;4.25;3.42;;;8.70;99.90;;;;;;5074441;28;20166;-68
2023/04/05 00:17:44;;;;;;;3.60;2.97;;;8.70;99.90;;;;;;5074070;28;20447;-68
2023/04/05 00:20:11;;;;;;;4.18;3.10;;;8.60;99.90;;;;;;5074394;28;20036;-68
2023/04/05 00:22:37;;;;;;;4.15;3.10;;;8.60;99.90;;;;;;5074376;28;20054;-68
2023/04/05 00:25:05;;;;;;;4.40;3.10;;;8.50;99.90;;;;;;5074267;28;20488;-67
2023/04/05 00:27:31;;;;;;;3.95;2.88;;;8.50;99.90;;;;;;5074613;28;20146;-67
2023/04/05 00:29:57;;;;;;;4.00;2.90;;;8.50;99.90;;;;;;5074163;28;20016;-68
2023/04/05 00:32:22;;;;;;;4.07;2.78;;;8.50;99.90;;;;;;5072451;28;20032;-68
2023/04/05 00:34:49;;;;;;;5.47;2.95;;;8.70;99.90;;;;;;5074042;28;20063;-68
2023/04/05 00:37:15;;;;;;;3.83;2.90;;;8.60;99.90;;;;;;5074128;28;20028;-68
2023/04/05 00:39:41;;;;;;;3.88;3.10;;;8.50;99.90;;;;;;5074088;28;20040;-67
2023/04/05 00:42:08;;;;;;;4.05;2.85;;;8.40;99.90;;;;;;5074028;28;20053;-68
2023/04/05 00:44:34;;;;;;;4.97;3.13;;;8.50;99.90;;;;;;5073776;28;20490;-67
2023/04/05 00:47:05;;;;;;;3.78;3.05;;;8.40;99.90;;;;;;5074002;28;20517;-68
2023/04/05 00:49:37;;;;;;;4.03;3.30;;;8.30;99.90;;;;;;5073927;28;20031;-68
2023/04/05 00:52:03;;;;;;;4.47;3.15;;;8.40;99.90;;;;;;5073640;28;20031;-68
2023/04/05 00:54:29;;;;;;;4.30;3.30;;;8.40;99.90;;;;;;5073664;28;20032;-68
2023/04/05 00:56:59;;;;;;;5.25;3.33;;;8.40;99.90;;;;;;5073652;28;20020;-68
2023/04/05 00:59:25;;;;;;;4.40;3.28;;;8.30;99.90;;;;;;5073721;28;20385;-67
2023/04/05 01:02:19;;;;;;;5.35;3.40;;;8.30;99.90;;;;;;5073616;28;20101;-68
2023/04/05 01:04:50;;;;;;;4.07;3.65;;;8.20;99.90;;;;;;5073613;28;20378;-68
2023/04/05 01:07:22;;;;;;;5.18;3.40;;;8.30;99.90;;;;;;5073570;28;20029;-68
2023/04/05 01:09:59;;;;;;;4.18;3.75;;;8.20;99.90;;;;;;5073887;28;20027;-68
2023/04/05 01:12:31;;;;;;;5.00;3.53;;;8.20;99.90;;;;;;5073160;28;20063;-68
2023/04/05 01:14:58;;;;;;;5.93;3.72;;;8.20;99.90;;;;;;5072922;28;20030;-68
2023/04/05 01:17:35;;;;;;;5.90;4.00;;;8.20;99.90;;;;;;5073074;28;20024;-68
2023/04/05 01:20:10;;;;;;;4.03;3.60;;;8.30;99.90;;;;;;5073310;28;20044;-68
2023/04/05 01:22:42;;;;;;;5.43;4.40;;;8.20;99.90;;;;;;5073226;28;20032;-68
2023/04/05 01:25:27;;;;;;;6.22;4.05;;;8.10;99.90;;;;;;5072996;28;20020;-68
2023/04/05 01:27:58;;;;;;;6.00;4.45;;;8.00;99.90;;;;;;5073593;28;20071;-68
2023/04/05 01:30:49;;;;;;;5.82;4.50;;;7.90;99.90;;;;;;5072607;28;20020;-68
2023/04/05 01:33:20;;;;;;;6.60;4.68;;;8.00;99.90;;;;;;5072827;28;20060;-68
2023/04/05 01:35:52;;;;;;;7.47;4.70;;;8.10;99.90;;;;;;5072749;28;20048;-68
2023/04/05 01:38:21;;;;;;;6.47;4.40;;;8.00;99.90;;;;;;5072845;28;20112;-68
2023/04/05 01:40:48;;;;;;;6.47;4.47;;;7.90;99.90;;;;;;5072760;28;20497;-68
2023/04/05 01:43:17;;;;;;;6.40;4.13;;;7.90;99.90;;;;;;5072737;28;20020;-68
2023/04/05 01:45:44;;;;;;;6.07;4.30;;;8.00;99.90;;;;;;5072759;28;20025;-68
2023/04/05 01:48:11;;;;;;;5.28;3.83;;;8.00;99.90;;;;;;5071397;28;20517;-68
2023/04/05 01:50:37;;;;;;;5.68;3.92;;;8.30;99.90;;;;;;5072534;28;20048;-68
2023/04/05 01:53:03;;;;;;;9.30;4.55;;;8.30;99.90;;;;;;5072767;28;20032;-68
2023/04/05 01:55:29;;;;;;;4.70;3.97;;;8.40;99.90;;;;;;5072314;28;20390;-68
2023/04/05 01:57:55;;;;;;;6.13;4.15;;;8.30;99.90;;;;;;5072123;28;20017;-69
2023/04/05 02:00:21;;;;;;;5.60;4.10;;;8.10;99.90;;;;;;5072602;28;20506;-68
2023/04/05 02:02:47;;;;;;;4.88;4.00;;;8.00;99.90;;;;;;5071859;28;20020;-68
2023/04/05 02:05:13;;;;;;;5.18;4.22;;;8.00;99.90;;;;;;5072256;28;20046;-68
2023/04/05 02:07:38;;;;;;;7.05;4.65;;;7.90;99.90;;;;;;5072454;28;20067;-68
2023/04/05 02:10:05;;;;;;;6.15;4.10;;;7.90;99.90;;;;;;5071200;28;20127;-68
2023/04/05 02:12:30;;;;;;;6.57;4.47;;;7.80;99.90;;;;;;5072338;28;20040;-68
2023/04/05 02:14:57;;;;;;;5.22;4.28;;;7.70;99.90;;;;;;5072346;28;20517;-68
2023/04/05 02:17:22;;;;;;;5.45;4.30;;;7.60;99.90;;;;;;5072255;28;20042;-68
2023/04/05 02:19:48;;;;;;;5.32;4.38;;;7.70;99.90;;;;;;5072642;28;20033;-68
2023/04/05 02:22:14;;;;;;;5.90;4.32;;;7.60;99.90;;;;;;5072410;28;20111;-68
2023/04/05 02:24:40;;;;;;;5.13;4.30;;;7.50;99.90;;;;;;5072143;28;20401;-68
2023/04/05 02:27:06;;;;;;;8.63;4.63;;;7.50;99.90;;;;;;5072270;28;20375;-68
2023/04/05 02:29:33;;;;;;;4.68;3.80;;;7.40;99.90;;;;;;5072342;28;20025;-67
2023/04/05 02:31:59;;;;;;;5.72;4.10;;;7.20;99.90;;;;;;5072230;28;20028;-68
2023/04/05 02:34:26;;;;;;;9.75;4.40;;;7.20;99.90;;;;;;5072204;28;20072;-68
2023/04/05 02:36:52;;;;;;;6.45;4.18;;;7.00;99.90;;;;;;5072178;28;20160;-68
2023/04/05 02:39:18;;;;;;;6.30;4.40;;;7.00;99.90;;;;;;5072208;28;20032;-68
2023/04/05 02:41:45;;;;;;;7.88;4.22;;;6.90;99.90;;;;;;5072039;28;20024;-68
2023/04/05 02:44:11;;;;;;;8.07;4.60;;;6.90;99.90;;;;;;5072070;28;20049;-68
2023/04/05 02:46:37;;;;;;;6.57;4.53;;;6.70;99.90;;;;;;5072105;28;20044;-67
2023/04/05 02:49:03;;;;;;;8.43;4.70;;;6.70;99.90;;;;;;5072004;28;20033;-68
2023/04/05 02:51:28;;;;;;;8.77;4.60;;;6.60;99.90;;;;;;5072448;28;20024;-68
2023/04/05 02:53:54;;;;;;;7.78;4.63;;;6.40;99.90;;;;;;5071865;28;20032;-68
2023/04/05 02:56:20;;;;;;;4.90;4.20;;;6.40;99.90;;;;;;5071813;28;20025;-68
2023/04/05 02:58:48;;;;;;;7.68;4.38;;;6.40;99.90;;;;;;5071663;28;20105;-68
2023/04/05 03:01:16;;;;;;;5.82;4.57;;;6.30;99.90;;;;;;5072011;28;20029;-68
2023/04/05 03:03:42;;;;;;;9.38;5.05;;;6.30;99.90;;;;;;5071924;28;20021;-68
2023/04/05 03:06:10;;;;;;;6.15;4.60;;;6.30;99.90;;;;;;5071595;28;20086;-68
2023/04/05 03:08:45;;;;;;;7.22;4.63;;;6.30;99.90;;;;;;5071760;28;20021;-68
2023/04/05 03:11:11;;;;;;;6.43;4.72;;;6.20;99.90;;;;;;5071862;28;20052;-67
2023/04/05 03:13:37;;;;;;;5.90;4.53;;;6.20;99.90;;;;;;5071889;28;20056;-68
2023/04/05 03:16:03;;;;;;;6.47;4.22;;;6.30;99.90;;;;;;5075507;28;20108;-68
2023/04/05 03:18:29;;;;;;;7.43;4.50;;;6.40;99.90;;;;;;5075871;28;20063;-67
2023/04/05 03:20:55;;;;;;;7.28;4.50;;;6.30;99.90;;;;;;5076206;28;20504;-68
2023/04/05 03:23:29;;;;;;;8.30;4.68;;;6.20;99.90;;;;;;5075649;28;20509;-68
2023/04/05 03:26:01;;;;;;;6.63;4.50;;;6.00;99.90;;;;;;5075624;28;20108;-68
2023/04/05 03:28:28;;;;;;;6.65;4.75;;;5.90;99.90;;;;;;5075767;28;20112;-68
2023/04/05 03:30:54;;;;;;;6.55;4.50;;;6.00;99.90;;;;;;5075370;28;20435;-68
2023/04/05 03:33:20;;;;;;;7.45;5.03;;;6.00;99.90;;;;;;5075379;28;20116;-68
2023/04/05 03:35:47;;;;;;;5.55;4.93;;;5.90;99.90;;;;;;5075863;28;20099;-67
2023/04/05 03:38:13;;;;;;;9.25;4.90;;;5.80;99.90;;;;;;5075359;28;20028;-68
2023/04/05 03:40:39;;;;;;;7.03;4.85;;;5.70;99.90;;;;;;5075124;28;20447;-68
2023/04/05 03:43:04;;;;;;;6.00;4.65;;;5.80;99.90;;;;;;5075280;28;20067;-68
2023/04/05 03:45:30;;;;;;;8.05;5.22;;;5.70;99.90;;;;;;5075232;28;20028;-68
2023/04/05 03:47:57;;;;;;;7.25;4.90;;;5.60;99.90;;;;;;5075330;28;20409;-68
2023/04/05 03:50:23;;;;;;;7.53;4.90;;;5.50;99.90;;;;;;5075160;28;20063;-68
2023/04/05 03:52:48;;;;;;;8.88;5.45;;;5.50;99.90;;;;;;5074918;28;20064;-68
2023/04/05 03:55:15;;;;;;;6.65;5.22;;;5.70;99.90;;;;;;5074782;28;20021;-67
2023/04/05 03:57:42;;;;;;;6.45;5.25;;;5.50;99.90;;;;;;5075354;28;20034;-68
2023/04/05 04:00:18;;;;;;;8.00;5.45;;;5.50;99.90;;;;;;5074689;28;20032;-68
2023/04/05 04:02:48;;;;;;;6.70;5.18;;;5.50;99.90;;;;;;5075151;28;20064;-68
2023/04/05 04:05:15;;;;;;;7.50;5.13;;;5.40;99.90;;;;;;5074783;28;20145;-67
2023/04/05 04:07:42;;;;;;;8.63;5.80;;;5.30;99.90;;;;;;5074714;28;20055;-68
2023/04/05 04:10:10;;;;;;;9.40;5.40;;;5.30;99.90;;;;;;5074558;28;20025;-68
2023/04/05 04:12:36;;;;;;;8.30;5.55;;;5.40;99.90;;;;;;5074942;28;20044;-68
2023/04/05 04:15:02;;;;;;;8.57;5.63;;;5.20;99.90;;;;;;5073436;28;20416;-67
2023/04/05 04:17:33;;;;;;;9.18;6.45;;;5.10;99.90;;;;;;5074558;28;20036;-68
2023/04/05 04:19:59;;;;;;;8.13;6.30;;;5.10;99.90;;;;;;5074735;28;20036;-67
2023/04/05 04:22:31;;;;;;;8.63;6.50;;;5.00;99.90;;;;;;5075093;28;20020;-68
2023/04/05 04:25:03;;;;;;;8.85;6.47;;;5.00;99.90;;;;;;5074157;28;20143;-68
2023/04/05 04:27:34;;;;;;;8.32;6.35;;;5.00;99.90;;;;;;5074536;28;20226;-68
2023/04/05 04:30:03;;;;;;;7.85;6.80;;;5.00;99.90;;;;;;5074437;28;20107;-68
2023/04/05 04:35:17;;;;;;;8.63;5.70;;;4.90;99.90;;;;;;5074481;28;20040;-67
2023/04/05 04:37:46;;;;;;;10.25;5.82;;;4.90;99.90;;;;;;5073971;28;20056;-68
2023/04/05 04:40:18;;;;;;;7.72;6.55;;;4.90;99.90;;;;;;5074706;28;20036;-67
2023/04/05 04:42:47;;;;;;;7.55;5.72;;;4.90;99.90;;;;;;5074179;28;20422;-68
2023/04/05 04:45:17;;;;;;;8.38;6.13;;;4.80;99.90;;;;;;5074210;28;20047;-67
2023/04/05 04:47:47;;;;;;;6.50;5.70;;;4.80;99.90;;;;;;5074199;28;20055;-68
2023/04/05 04:50:14;;;;;;;8.27;5.72;;;4.70;99.90;;;;;;5074421;28;20448;-68
2023/04/05 04:52:41;;;;;;;9.77;6.25;;;4.80;99.90;;;;;;5073608;28;20045;-67
2023/04/05 04:55:08;;;;;;;11.32;7.05;;;4.80;99.90;;;;;;5074059;28;20021;-68
2023/04/05 04:57:34;;;;;;;8.70;6.70;;;4.90;99.90;;;;;;5073958;28;20487;-67
2023/04/05 05:00:00;;;;;;;14.57;7.78;;;4.80;99.90;;;;;;5073706;28;20390;-67
2023/04/05 05:02:27;;;;;;;9.35;7.55;;;4.70;99.90;;;;;;5074431;28;20039;-68
2023/04/05 05:04:53;;;;;;;12.68;7.15;;;4.80;99.90;;;;;;5073493;28;20413;-68
2023/04/05 05:07:19;;;;;;;8.65;6.90;;;4.80;99.90;;;;;;5073547;28;20032;-67
2023/04/05 05:09:46;;;;;;;7.95;6.95;;;4.80;99.90;;;;;;5073655;28;20099;-68
2023/04/05 05:12:12;;;;;;;9.60;6.63;;;4.60;99.90;;;;;;5073513;28;20419;-68
2023/04/05 05:14:38;;;;;;;9.93;6.85;;;4.60;99.90;;;;;;5073613;28;20028;-68
2023/04/05 05:17:05;;;;;;;9.70;6.88;;;4.50;99.90;;;;;;5074043;28;20112;-69
2023/04/05 05:19:31;;;;;;;11.05;7.55;;;4.60;99.90;;;;;;5073418;28;20025;-67
2023/04/05 05:21:56;;;;;;;13.68;8.73;;;4.50;99.90;;;;;;5073109;28;20028;-66
2023/04/05 05:24:22;;;;;;;19.50;11.65;;;4.70;99.90;;;;;;5073177;28;20403;-67
2023/04/05 05:26:48;;;;;;;20.15;13.20;;;4.60;99.90;;;;;;5073662;28;20029;-68
2023/04/05 05:29:13;;;;;;;21.00;13.60;;;4.40;99.90;;;;;;5073151;28;20021;-68
2023/04/05 05:31:39;;;;;;;20.55;12.43;;;4.40;99.90;;;;;;5073465;28;20056;-68
2023/04/05 05:34:07;;;;;;;16.70;10.45;;;4.50;99.90;;;;;;5073058;28;20079;-68
2023/04/05 05:36:33;;;;;;;14.70;9.43;;;4.40;99.90;;;;;;5072411;28;20414;-68
2023/04/05 05:38:59;;;;;;;12.93;8.38;;;4.30;99.90;;;;;;5071655;28;20028;-68
2023/04/05 05:41:25;;;;;;;10.93;8.02;;;4.40;99.90;;;;;;5072813;28;20024;-68
2023/04/05 05:43:52;;;;;;;13.32;7.88;;;4.30;99.90;;;;;;5072849;28;20028;-67
2023/04/05 05:46:19;;;;;;;14.30;8.13;;;4.30;99.90;;;;;;5072895;28;20024;-67
2023/04/05 05:48:45;;;;;;;11.25;7.70;;;4.20;99.90;;;;;;5072746;28;20039;-68
2023/04/05 05:51:10;;;;;;;13.13;6.78;;;4.30;99.90;;;;;;5073019;28;20029;-68
2023/04/05 05:53:37;;;;;;;15.13;8.13;;;4.30;99.90;;;;;;5072544;28;20040;-68
2023/04/05 05:56:03;;;;;;;17.20;7.70;;;4.30;99.90;;;;;;5072307;28;20513;-69
2023/04/05 05:58:29;;;;;;;16.13;7.93;;;4.20;99.90;;;;;;5071933;28;20024;-68
2023/04/05 06:00:57;;;;;;;17.42;7.18;;;4.20;99.90;;;;;;5072466;28;20028;-68
2023/04/05 06:03:30;;;;;;;10.68;6.82;;;4.30;99.90;;;;;;5072790;28;20024;-69
2023/04/05 06:05:57;;;;;;;10.70;6.43;;;4.40;99.90;;;;;;5072269;28;20020;-68
2023/04/05 06:08:24;;;;;;;9.48;6.30;;;4.30;99.90;;;;;;5072406;28;20032;-69
2023/04/05 06:10:51;;;;;;;9.25;5.97;;;4.30;99.90;;;;;;5072173;28;20529;-68
2023/04/05 06:13:17;;;;;;;16.05;6.90;;;4.30;99.90;;;;;;5072465;28;20075;-68
2023/04/05 06:15:42;;;;;;;16.98;7.97;;;4.30;99.90;;;;;;5072816;28;20052;-69
2023/04/05 06:18:09;;;;;;;15.10;7.28;;;4.40;99.90;;;;;;5070417;28;20062;-69
2023/04/05 06:20:39;;;;;;;11.77;7.65;;;4.50;99.90;;;;;;5072031;28;20077;-69
2023/04/05 06:23:08;;;;;;;14.43;8.27;;;4.60;99.90;;;;;;5072321;28;20047;-68
2023/04/05 06:25:34;;;;;;;13.52;9.00;;;4.60;99.90;;;;;;5071585;28;20036;-69
2023/04/05 06:28:05;;;;;;;14.63;9.10;;;4.60;99.90;;;;;;5071476;28;20104;-69
2023/04/05 06:30:32;;;;;;;15.93;9.52;;;4.60;99.90;;;;;;5071792;28;20025;-68
2023/04/05 06:32:58;;;;;;;11.00;9.02;;;4.70;99.90;;;;;;5071831;28;20036;-69
2023/04/05 06:35:24;;;;;;;14.45;8.73;;;4.70;99.90;;;;;;5071659;28;20031;-69
2023/04/05 06:37:51;;;;;;;17.05;9.32;;;4.80;99.90;;;;;;5072326;28;20078;-69
2023/04/05 06:40:17;;;;;;;13.35;9.43;;;4.90;99.90;;;;;;5071116;28;20021;-69
2023/04/05 06:42:43;;;;;;;17.13;10.65;;;5.00;99.90;;;;;;5071993;28;20468;-68
2023/04/05 06:45:10;;;;;;;15.35;10.38;;;5.00;99.90;;;;;;5071964;28;20108;-69
2023/04/05 06:47:38;;;;;;;13.50;9.35;;;5.00;99.90;;;;;;5071768;28;20047;-69
2023/04/05 06:50:05;;;;;;;15.25;10.00;;;5.00;99.90;;;;;;5072210;28;20483;-69
2023/04/05 06:52:31;;;;;;;14.52;10.20;;;5.10;99.90;;;;;;5072291;28;20044;-69
2023/04/05 06:54:57;;;;;;;12.50;9.38;;;5.20;99.90;;;;;;5070874;28;20033;-69
2023/04/05 06:57:23;;;;;;;13.55;10.20;;;5.30;99.90;;;;;;5071835;28;20028;-69
2023/04/05 06:59:50;;;;;;;12.60;9.77;;;5.40;99.90;;;;;;5070927;28;20033;-69
2023/04/05 07:02:15;;;;;;;11.05;8.05;;;5.50;99.90;;;;;;5071451;28;20028;-67
2023/04/05 07:04:41;;;;;;;12.85;7.85;;;5.50;99.90;;;;;;5072127;28;20025;-67
2023/04/05 07:07:06;;;;;;;11.82;7.75;;;5.60;99.90;;;;;;5071870;28;20120;-66
2023/04/05 07:09:32;;;;;;;12.98;8.52;;;5.70;99.90;;;;;;5072142;28;20021;-67
2023/04/05 07:12:00;;;;;;;12.52;8.30;;;5.80;99.90;;;;;;5071672;28;20052;-69
2023/04/05 07:14:28;;;;;;;18.88;8.23;;;5.90;99.90;;;;;;5071414;28;20490;-68
2023/04/05 07:16:53;;;;;;;12.13;7.63;;;6.10;99.90;;;;;;5071490;28;20025;-69
2023/04/05 07:19:19;;;;;;;10.80;8.48;;;6.10;99.90;;;;;;5071753;28;20108;-68
2023/04/05 07:21:45;;;;;;;13.93;8.48;;;6.30;99.90;;;;;;5071551;28;20035;-69
2023/04/05 07:24:10;;;;;;;13.50;8.63;;;6.30;99.90;;;;;;5070498;28;20013;-68
2023/04/05 07:26:36;;;;;;;15.10;8.30;;;6.40;99.90;;;;;;5070456;28;20028;-69
2023/04/05 07:29:07;;;;;;;13.10;9.43;;;6.50;99.90;;;;;;5071656;28;20020;-69
2023/04/05 07:31:33;;;;;;;12.75;9.02;;;6.50;99.90;;;;;;5071201;28;20028;-69
2023/04/05 07:34:00;;;;;;;15.00;8.95;;;6.50;99.90;;;;;;5071723;28;20037;-70
2023/04/05 07:36:26;;;;;;;14.82;9.50;;;6.60;99.90;;;;;;5071948;28;20535;-69
2023/04/05 07:38:53;;;;;;;11.50;8.98;;;6.70;99.90;;;;;;5071515;28;20074;-69
2023/04/05 07:41:19;;;;;;;11.63;8.40;;;6.70;99.90;;;;;;5071590;28;20025;-70
2023/04/05 07:43:45;;;;;;;10.40;7.80;;;6.70;99.90;;;;;;5071401;28;20024;-70
2023/04/05 07:46:11;;;;;;;12.07;7.32;;;6.80;99.90;;;;;;5071387;28;20078;-69
2023/04/05 07:48:37;;;;;;;11.93;7.65;;;6.80;99.90;;;;;;5071660;28;20032;-69
2023/04/05 07:51:07;;;;;;;7.95;6.97;;;7.00;99.90;;;;;;5071476;28;20112;-70
2023/04/05 07:53:34;;;;;;;8.60;7.10;;;7.00;99.90;;;;;;5071363;28;20036;-70
2023/04/05 07:56:04;;;;;;;12.10;7.20;;;7.10;99.90;;;;;;5071270;28;20025;-70
2023/04/05 07:58:31;;;;;;;10.98;7.28;;;7.20;99.90;;;;;;5071552;28;20102;-71
2023/04/05 08:01:03;;;;;;;9.77;7.10;;;7.20;99.90;;;;;;5072911;28;20028;-71
2023/04/05 08:03:30;;;;;;;12.18;7.30;;;7.30;99.90;;;;;;5074906;28;20052;-71
2023/04/05 08:05:56;;;;;;;8.88;6.75;;;7.40;99.90;;;;;;5074978;28;20025;-71
2023/04/05 08:08:23;;;;;;;9.27;6.55;;;7.50;99.90;;;;;;5074692;28;20032;-71
2023/04/05 08:10:49;;;;;;;10.60;6.93;;;7.60;99.90;;;;;;5074712;28;20044;-71
2023/04/05 08:13:15;;;;;;;8.65;6.57;;;7.70;99.90;;;;;;5074693;28;20086;-71
2023/04/05 08:15:41;;;;;;;9.27;6.78;;;7.80;99.90;;;;;;5074731;28;20028;-70
2023/04/05 08:18:06;;;;;;;11.35;6.80;;;7.90;99.90;;;;;;5074559;28;20071;-71
2023/04/05 08:20:37;;;;;;;10.60;6.80;;;7.90;99.90;;;;;;5074600;28;20052;-71
2023/04/05 08:23:04;;;;;;;9.27;6.60;;;8.00;99.90;;;;;;5074644;28;20521;-71
2023/04/05 08:25:29;;;;;;;10.25;7.22;;;8.20;99.90;;;;;;5074590;28;20013;-71
2023/04/05 08:27:55;;;;;;;9.90;7.40;;;8.30;99.90;;;;;;5074863;28;20497;-71
2023/04/05 08:30:22;;;;;;;10.93;6.30;;;8.30;99.90;;;;;;5074221;28;20017;-71
2023/04/05 08:32:48;;;;;;;9.80;6.97;;;8.40;99.90;;;;;;5074345;28;20033;-70
2023/04/05 08:35:15;;;;;;;10.07;8.05;;;8.50;99.90;;;;;;5074987;28;20107;-71
2023/04/05 08:37:40;;;;;;;9.73;7.45;;;8.60;99.90;;;;;;5074278;28;20508;-71
2023/04/05 08:40:07;;;;;;;10.18;7.20;;;8.70;99.90;;;;;;5074561;28;20111;-71
2023/04/05 08:42:36;;;;;;;9.02;6.90;;;8.80;99.90;;;;;;5074163;28;20031;-71
2023/04/05 08:45:08;;;;;;;8.80;7.07;;;8.90;99.90;;;;;;5074043;28;20402;-72
2023/04/05 08:47:37;;;;;;;8.60;6.90;;;8.90;99.90;;;;;;5074513;28;20024;-71
2023/04/05 08:50:04;;;;;;;9.65;6.60;;;9.00;99.90;;;;;;5074091;28;20073;-71
2023/04/05 08:52:32;;;;;;;11.63;7.13;;;9.10;99.90;;;;;;5074009;28;20074;-72
2023/04/05 08:54:58;;;;;;;7.57;6.40;;;9.30;99.90;;;;;;5074305;28;20115;-70
2023/04/05 08:57:28;;;;;;;7.72;6.20;;;9.50;99.90;;;;;;5073643;28;20104;-70
2023/04/05 08:59:55;;;;;;;8.93;6.25;;;9.70;99.90;;;;;;5073367;28;20028;-69
2023/04/05 09:02:23;;;;;;;9.50;5.95;;;9.80;99.90;;;;;;5073801;28;20107;-71
2023/04/05 09:04:50;;;;;;;10.05;6.28;;;10.00;99.90;;;;;;5074110;28;20031;-70
2023/04/05 09:07:16;;;;;;;5.22;4.65;;;10.00;99.90;;;;;;5074055;28;20074;-71
2023/04/05 09:09:46;;;;;;;7.40;5.07;;;10.00;99.90;;;;;;5073719;28;20028;-70
2023/04/05 09:12:13;;;;;;;6.43;4.28;;;10.10;99.90;;;;;;5073416;28;20129;-71
2023/04/05 09:14:39;;;;;;;5.57;3.65;;;10.10;99.90;;;;;;5072473;28;20078;-72
2023/04/05 09:17:05;;;;;;;4.95;3.45;;;10.20;99.90;;;;;;5072619;28;20148;-70
2023/04/05 09:19:31;;;;;;;9.98;4.60;;;10.30;99.90;;;;;;5072152;28;20107;-70
2023/04/05 09:22:05;;;;;;;8.40;4.10;;;10.20;99.90;;;;;;5072373;28;20051;-64
2023/04/05 09:26:38;;;;;;;7.38;3.90;;;10.50;99.90;;;;;;5130589;27;20116;-69
2023/04/05 09:29:04;;;;;;;6.10;3.72;;;10.50;99.90;;;;;;5130572;28;20057;-67
2023/04/05 09:31:35;;;;;;;9.18;3.50;;;10.40;99.90;;;;;;5130121;28;20519;-69
2023/04/05 09:34:05;;;;;;;4.15;2.50;;;10.80;99.90;;;;;;5130471;28;20054;-68
2023/04/05 09:36:33;;;;;;;3.05;2.40;;;10.80;99.90;;;;;;5130400;28;20039;-68
2023/04/05 09:39:07;;;;;;;5.18;2.58;;;10.60;99.90;;;;;;5130140;28;20050;-68
2023/04/05 09:41:34;;;;;;;;;;;10.50;99.90;;;;;;5111830;28;20388;-68
2023/04/05 09:44:00;;;;;;;2.78;2.45;;;10.50;99.90;;;;;;5130110;28;19946;-69
2023/04/05 09:46:40;;;;;;;3.05;2.40;;;10.70;99.90;;;;;;5130152;28;20047;-70
2023/04/05 09:49:08;;;;;;;4.28;2.50;;;10.70;99.90;;;;;;5130015;28;20050;-67
2023/04/05 09:51:36;;;;;;;3.42;2.60;;;11.00;99.90;;;;;;5130012;28;20043;-69
2023/04/05 09:54:06;;;;;;;3.45;2.60;;;11.20;99.90;;;;;;5129815;28;20020;-69
2023/04/05 09:56:34;;;;;;;3.80;2.80;;;11.00;99.90;;;;;;5129450;28;20023;-69
2023/04/05 09:59:10;;;;;;;4.55;3.10;;;11.10;99.90;;;;;;5128411;28;20543;-69
2023/04/05 10:01:37;;;;;;;6.72;3.10;;;11.30;99.90;;;;;;5129152;28;20425;-68
2023/04/05 10:04:03;;;;;;;4.50;2.88;;;11.40;99.90;;;;;;5129798;28;20141;-68
2023/04/05 10:06:39;;;;;;;5.32;3.00;;;11.20;99.90;;;;;;5130210;28;20032;-68
2023/04/05 10:09:07;;;;;;;4.45;2.90;;;11.30;99.90;;;;;;5129753;28;20083;-67
2023/04/05 10:11:33;;;;;;;4.80;2.88;;;11.50;99.90;;;;;;5129471;28;20488;-67
2023/04/05 10:14:07;;;;;;;4.10;2.80;;;11.60;99.90;;;;;;5130141;28;20096;-66
2023/04/05 10:16:37;;;;;;;5.68;2.83;;;11.70;99.90;;;;;;5129381;28;20094;-68
2023/04/05 10:19:05;;;;;;;4.10;2.80;;;11.90;99.90;;;;;;5129747;28;20063;-65
2023/04/05 10:21:34;;;;;;;2.72;2.28;;;12.10;99.90;;;;;;5129597;28;20489;-67
2023/04/05 10:24:21;;;;;;;3.05;2.40;;;12.00;99.90;;;;;;5129463;28;20034;-67
2023/04/05 10:27:19;;;;;;;3.58;2.70;;;11.80;99.90;;;;;;5129290;28;20145;-66
2023/04/05 10:30:15;;;;;;;4.40;2.83;;;12.00;99.90;;;;;;5109466;28;20463;-67
2023/04/05 10:33:02;;;;;;;3.22;2.47;;;12.20;99.90;;;;;;5107646;28;20036;-67
2023/04/05 10:35:37;;;;;;;3.60;2.30;;;12.20;99.90;;;;;;5129232;28;20027;-68
2023/04/05 10:38:29;;;;;;;6.10;2.20;;;12.40;99.90;;;;;;5114992;28;20484;-67
2023/04/05 10:41:15;;;;;;;3.17;2.33;;;12.50;99.90;;;;;;5103891;28;20036;-67
2023/04/05 10:43:41;;;;;;;4.97;2.10;;;12.30;99.90;;;;;;5114934;28;20031;-67
2023/04/05 10:46:09;;;;;;;3.08;2.20;;;12.40;99.90;;;;;;5115090;28;20047;-67
2023/04/05 10:49:00;;;;;;;3.63;2.10;;;12.40;99.90;;;;;;5114666;28;20476;-68
2023/04/05 10:51:28;;;;;;;3.55;2.38;;;12.30;99.90;;;;;;5102995;28;20028;-67
2023/04/05 10:53:55;;;;;;;3.70;2.10;;;12.30;99.90;;;;;;5115238;28;20099;-68
2023/04/05 10:56:21;;;;;;;4.00;2.20;;;12.40;99.90;;;;;;5114052;28;20019;-68
2023/04/05 10:58:48;;;;;;;3.80;2.30;;;12.30;99.90;;;;;;5114808;28;20027;-67
2023/04/05 11:01:16;;;;;;;4.20;2.20;;;12.30;99.90;;;;;;5114249;28;20484;-67
2023/04/05 11:03:49;;;;;;;4.07;2.00;;;12.50;99.90;;;;;;5114936;28;20479;-67
2023/04/05 11:06:30;;;;;;;3.47;1.95;;;12.70;99.90;;;;;;5114611;28;20047;-67
2023/04/05 11:09:10;;;;;;;3.33;1.98;;;12.70;99.90;;;;;;5114091;28;20083;-68
2023/04/05 11:11:41;;;;;;;2.88;2.08;;;12.80;99.90;;;;;;5114798;28;20051;-67
2023/04/05 11:14:20;;;;;;;2.75;1.83;;;12.90;99.90;;;;;;5114128;28;20492;-66
2023/04/05 11:16:55;;;;;;;4.25;2.17;;;13.00;99.90;;;;;;5113834;28;20110;-67
2023/04/05 11:19:47;;;;;;;5.05;2.22;;;13.10;99.90;;;;;;5114456;28;20020;-66
2023/04/05 11:22:25;;;;;;;3.60;2.20;;;13.30;99.90;;;;;;5114401;28;20387;-67
2023/04/05 11:24:56;;;;;;;4.05;2.13;;;13.40;99.90;;;;;;5113834;28;20067;-67
2023/04/05 11:27:33;;;;;;;3.25;2.03;;;13.60;99.90;;;;;;5114449;28;20031;-67
2023/04/05 11:30:00;;;;;;;2.50;1.90;;;13.50;99.90;;;;;;5113621;28;20028;-67
2023/04/05 11:32:57;;;;;;;3.58;1.80;;;13.40;99.90;;;;;;5114458;27;20039;-67
2023/04/05 11:35:23;;;;;;;2.30;1.70;;;13.70;99.90;;;;;;5051609;28;20033;-67
2023/04/05 11:37:54;;;;;;;3.40;2.00;;;13.70;99.90;;;;;;5051337;28;20028;-67
2023/04/05 11:40:30;;;;;;;3.00;1.90;;;13.90;99.90;;;;;;5051450;28;20184;-67
2023/04/05 11:43:10;;;;;;;3.30;2.25;;;13.90;99.90;;;;;;5051636;28;20025;-67
2023/04/05 11:45:37;;;;;;;3.78;2.13;;;14.20;99.90;;;;;;5051040;28;20041;-67
2023/04/05 11:48:07;;;;;;;3.45;2.13;;;14.20;99.90;;;;;;5050282;28;20100;-68
2023/04/05 11:50:32;;;;;;;3.72;2.15;;;13.90;99.90;;;;;;5051030;28;20040;-67
2023/04/05 11:53:15;;;;;;;4.22;2.25;;;14.10;99.90;;;;;;5051052;28;20032;-66
2023/04/05 11:55:45;;;;;;;2.75;2.03;;;14.20;99.90;;;;;;5051186;28;20036;-67
2023/04/05 11:58:24;;;;;;;4.30;3.25;;;14.20;99.90;;;;;;5048780;28;20053;-67
2023/04/05 12:00:58;;;;;;;4.85;3.00;;;14.30;99.90;;;;;;5048566;28;20467;-66
2023/04/05 12:03:27;;;;;;;6.10;2.95;;;14.50;99.90;;;;;;5049270;28;20055;-68
2023/04/05 12:05:54;;;;;;;2.97;2.08;;;14.40;99.90;;;;;;5048521;28;20067;-67
2023/04/05 12:08:21;;;;;;;3.95;2.10;;;14.20;99.90;;;;;;5048094;28;20097;-66
2023/04/05 12:10:57;;;;;;;5.57;2.10;;;14.30;99.90;;;;;;5073526;28;20032;-66
2023/04/05 12:13:27;;;;;;;4.85;2.00;;;14.60;99.90;;;;;;5112436;28;20030;-67
2023/04/05 12:15:53;;;;;;;3.08;2.17;;;14.70;99.90;;;;;;5112229;28;20024;-67
2023/04/05 12:18:19;;;;;;;4.72;2.10;;;14.90;99.90;;;;;;5112631;28;20102;-66
2023/04/05 12:20:45;;;;;;;4.30;2.50;;;14.90;99.90;;;;;;5092681;28;20119;-67
2023/04/05 12:23:11;;;;;;;4.78;2.30;;;15.00;99.90;;;;;;5112699;28;20027;-67
2023/04/05 12:25:37;;;;;;;5.03;2.45;;;14.90;99.90;;;;;;5092899;28;20048;-67
2023/04/05 12:28:07;;;;;;;4.65;2.10;;;14.90;99.90;;;;;;5095303;28;20488;-67
2023/04/05 12:30:36;;;;;;;8.13;2.33;;;14.90;99.90;;;;;;5113278;28;20058;-67
2023/04/05 12:33:08;;;;;;;6.85;2.45;;;14.90;99.90;;;;;;5113521;28;20447;-68
2023/04/05 12:35:34;;;;;;;6.22;2.25;;;14.90;99.90;;;;;;5112923;28;20038;-68
2023/04/05 12:38:04;;;;;;;4.93;2.33;;;14.90;99.90;;;;;;5094979;28;20028;-67
2023/04/05 12:40:33;;;;;;;6.10;2.20;;;15.10;99.90;;;;;;5113146;28;20104;-67
2023/04/05 12:43:05;;;;;;;6.18;2.50;;;15.10;99.90;;;;;;5113153;28;20034;-67
2023/04/05 12:45:38;;;;;;;7.90;2.28;;;15.20;99.90;;;;;;5112819;28;20392;-67
2023/04/05 12:48:12;;;;;;;6.43;2.88;;;15.20;99.90;;;;;;5112910;28;20028;-67
2023/04/05 12:50:43;;;;;;;4.22;2.17;;;15.20;99.90;;;;;;5112762;28;20103;-67
2023/04/05 12:53:22;;;;;;;5.78;2.38;;;15.10;99.90;;;;;;5112932;28;20107;-67
2023/04/05 12:55:52;;;;;;;6.30;2.20;;;15.20;99.90;;;;;;5112933;28;20059;-67
2023/04/05 12:58:39;;;;;;;7.70;2.10;;;15.40;99.90;;;;;;5112864;28;20050;-67
2023/04/05 13:01:05;;;;;;;6.65;2.60;;;15.40;99.90;;;;;;5112328;28;20020;-67
2023/04/05 13:03:31;;;;;;;6.90;2.55;;;15.30;99.90;;;;;;5112552;28;20031;-67